sensor_id;sensor_type;location;lat;lon;timestamp;P1;durP1;ratioP1;P2;durP2;ratioP2
18206;SDS011;9229;52.354;20.886;2023-12-20T00:02:01;24.95;;;12.80;;
18206;SDS011;9229;52.354;20.886;2023-12-20T00:07:03;20.00;;;12.43;;
18206;SDS011;9229;52.354;20.886;2023-12-20T00:12:05;19.00;;;11.52;;
18206;SDS011;9229;52.354;20.886;2023-12-20T00:17:09;18.48;;;11.88;;
18206;SDS011;9229;52.354;20.886;2023-12-20T00:22:11;20.23;;;12.43;;
18206;SDS011;9229;52.354;20.886;2023-12-20T00:27:13;19.30;;;11.40;;
18206;SDS011;9229;52.354;20.886;2023-12-20T00:32:16;31.23;;;15.60;;
18206;SDS011;9229;52.354;20.886;2023-12-20T00:37:19;50.83;;;19.17;;
18206;SDS011;9229;52.354;20.886;2023-12-20T00:42:21;41.38;;;17.55;;
18206;SDS011;9229;52.354;20.886;2023-12-20T00:47:25;51.80;;;19.98;;
18206;SDS011;9229;52.354;20.886;2023-12-20T00:52:27;39.35;;;18.38;;
18206;SDS011;9229;52.354;20.886;2023-12-20T00:57:28;21.30;;;11.73;;
18206;SDS011;9229;52.354;20.886;2023-12-20T01:02:32;22.20;;;12.48;;
18206;SDS011;9229;52.354;20.886;2023-12-20T01:07:34;21.52;;;13.05;;
18206;SDS011;9229;52.354;20.886;2023-12-20T01:12:36;16.80;;;11.40;;
18206;SDS011;9229;52.354;20.886;2023-12-20T01:17:40;23.17;;;12.52;;
18206;SDS011;9229;52.354;20.886;2023-12-20T01:22:42;21.98;;;11.55;;
18206;SDS011;9229;52.354;20.886;2023-12-20T01:27:46;23.75;;;12.75;;
18206;SDS011;9229;52.354;20.886;2023-12-20T01:32:49;19.85;;;10.55;;
18206;SDS011;9229;52.354;20.886;2023-12-20T01:37:52;15.18;;;10.13;;
18206;SDS011;9229;52.354;20.886;2023-12-20T01:42:59;14.30;;;9.20;;
18206;SDS011;9229;52.354;20.886;2023-12-20T01:48:04;18.98;;;10.45;;
18206;SDS011;9229;52.354;20.886;2023-12-20T01:53:09;13.25;;;9.52;;
18206;SDS011;9229;52.354;20.886;2023-12-20T01:58:14;15.68;;;11.10;;
18206;SDS011;9229;52.354;20.886;2023-12-20T02:03:18;15.32;;;10.18;;
18206;SDS011;9229;52.354;20.886;2023-12-20T02:08:20;14.98;;;9.25;;
18206;SDS011;9229;52.354;20.886;2023-12-20T02:13:22;14.98;;;10.07;;
18206;SDS011;9229;52.354;20.886;2023-12-20T02:18:25;16.48;;;10.55;;
18206;SDS011;9229;52.354;20.886;2023-12-20T02:23:29;13.98;;;9.73;;
18206;SDS011;9229;52.354;20.886;2023-12-20T02:28:31;11.93;;;8.43;;
18206;SDS011;9229;52.354;20.886;2023-12-20T02:33:34;13.05;;;8.93;;
18206;SDS011;9229;52.354;20.886;2023-12-20T02:38:37;13.32;;;9.27;;
18206;SDS011;9229;52.354;20.886;2023-12-20T02:43:39;15.30;;;9.57;;
18206;SDS011;9229;52.354;20.886;2023-12-20T02:48:41;11.80;;;9.43;;
18206;SDS011;9229;52.354;20.886;2023-12-20T02:53:45;12.77;;;9.13;;
18206;SDS011;9229;52.354;20.886;2023-12-20T02:58:47;10.73;;;8.13;;
18206;SDS011;9229;52.354;20.886;2023-12-20T03:03:49;10.30;;;7.88;;
18206;SDS011;9229;52.354;20.886;2023-12-20T03:08:52;13.63;;;8.35;;
18206;SDS011;9229;52.354;20.886;2023-12-20T03:13:54;10.60;;;8.00;;
18206;SDS011;9229;52.354;20.886;2023-12-20T03:18:58;10.80;;;8.35;;
18206;SDS011;9229;52.354;20.886;2023-12-20T03:24:01;9.90;;;8.20;;
18206;SDS011;9229;52.354;20.886;2023-12-20T03:29:04;11.48;;;8.85;;
18206;SDS011;9229;52.354;20.886;2023-12-20T03:34:06;9.93;;;7.57;;
18206;SDS011;9229;52.354;20.886;2023-12-20T03:39:09;12.55;;;8.38;;
18206;SDS011;9229;52.354;20.886;2023-12-20T03:44:11;12.50;;;8.23;;
18206;SDS011;9229;52.354;20.886;2023-12-20T03:49:13;14.27;;;9.20;;
18206;SDS011;9229;52.354;20.886;2023-12-20T03:54:19;14.95;;;8.70;;
18206;SDS011;9229;52.354;20.886;2023-12-20T03:59:21;12.05;;;9.02;;
18206;SDS011;9229;52.354;20.886;2023-12-20T04:04:23;14.13;;;9.02;;
18206;SDS011;9229;52.354;20.886;2023-12-20T04:09:27;19.30;;;8.90;;
18206;SDS011;9229;52.354;20.886;2023-12-20T04:14:29;11.27;;;9.00;;
18206;SDS011;9229;52.354;20.886;2023-12-20T04:19:30;11.32;;;8.02;;
18206;SDS011;9229;52.354;20.886;2023-12-20T04:24:34;9.65;;;8.05;;
18206;SDS011;9229;52.354;20.886;2023-12-20T04:29:36;11.55;;;7.95;;
18206;SDS011;9229;52.354;20.886;2023-12-20T04:34:38;12.35;;;8.55;;
18206;SDS011;9229;52.354;20.886;2023-12-20T04:39:42;12.73;;;8.43;;
18206;SDS011;9229;52.354;20.886;2023-12-20T04:44:45;10.85;;;8.50;;
18206;SDS011;9229;52.354;20.886;2023-12-20T04:49:47;11.55;;;8.50;;
18206;SDS011;9229;52.354;20.886;2023-12-20T04:54:50;10.73;;;8.73;;
18206;SDS011;9229;52.354;20.886;2023-12-20T04:59:53;14.02;;;8.00;;
18206;SDS011;9229;52.354;20.886;2023-12-20T05:04:55;13.80;;;9.07;;
18206;SDS011;9229;52.354;20.886;2023-12-20T05:09:58;12.90;;;8.57;;
18206;SDS011;9229;52.354;20.886;2023-12-20T05:15:00;13.77;;;9.00;;
18206;SDS011;9229;52.354;20.886;2023-12-20T05:20:03;13.98;;;9.35;;
18206;SDS011;9229;52.354;20.886;2023-12-20T05:25:08;12.95;;;8.88;;
18206;SDS011;9229;52.354;20.886;2023-12-20T05:30:10;10.82;;;8.20;;
18206;SDS011;9229;52.354;20.886;2023-12-20T05:35:13;12.60;;;8.20;;
18206;SDS011;9229;52.354;20.886;2023-12-20T05:40:17;13.80;;;8.85;;
18206;SDS011;9229;52.354;20.886;2023-12-20T05:45:19;9.80;;;7.95;;
18206;SDS011;9229;52.354;20.886;2023-12-20T05:50:21;12.30;;;8.80;;
18206;SDS011;9229;52.354;20.886;2023-12-20T05:55:24;13.60;;;9.10;;
18206;SDS011;9229;52.354;20.886;2023-12-20T06:00:26;14.07;;;9.20;;
18206;SDS011;9229;52.354;20.886;2023-12-20T06:05:29;24.55;;;13.10;;
18206;SDS011;9229;52.354;20.886;2023-12-20T06:10:32;17.13;;;10.38;;
18206;SDS011;9229;52.354;20.886;2023-12-20T06:15:34;13.77;;;9.38;;
18206;SDS011;9229;52.354;20.886;2023-12-20T06:20:36;11.82;;;9.50;;
18206;SDS011;9229;52.354;20.886;2023-12-20T06:25:40;19.45;;;12.18;;
18206;SDS011;9229;52.354;20.886;2023-12-20T06:30:42;19.33;;;9.23;;
18206;SDS011;9229;52.354;20.886;2023-12-20T06:35:46;14.27;;;9.25;;
18206;SDS011;9229;52.354;20.886;2023-12-20T06:40:49;15.15;;;9.80;;
18206;SDS011;9229;52.354;20.886;2023-12-20T06:45:51;16.67;;;10.68;;
18206;SDS011;9229;52.354;20.886;2023-12-20T06:50:53;14.90;;;8.57;;
18206;SDS011;9229;52.354;20.886;2023-12-20T06:55:56;13.48;;;9.32;;
18206;SDS011;9229;52.354;20.886;2023-12-20T07:00:58;15.65;;;8.77;;
18206;SDS011;9229;52.354;20.886;2023-12-20T07:06:01;15.85;;;8.95;;
18206;SDS011;9229;52.354;20.886;2023-12-20T07:11:05;17.63;;;10.50;;
18206;SDS011;9229;52.354;20.886;2023-12-20T07:16:07;14.35;;;9.35;;
18206;SDS011;9229;52.354;20.886;2023-12-20T07:21:09;12.45;;;8.48;;
18206;SDS011;9229;52.354;20.886;2023-12-20T07:26:15;13.15;;;9.02;;
18206;SDS011;9229;52.354;20.886;2023-12-20T07:31:21;12.85;;;8.63;;
18206;SDS011;9229;52.354;20.886;2023-12-20T07:36:24;17.83;;;11.15;;
18206;SDS011;9229;52.354;20.886;2023-12-20T07:41:27;13.88;;;8.85;;
18206;SDS011;9229;52.354;20.886;2023-12-20T07:46:29;17.70;;;8.88;;
18206;SDS011;9229;52.354;20.886;2023-12-20T07:51:31;12.57;;;8.65;;
18206;SDS011;9229;52.354;20.886;2023-12-20T07:56:35;18.27;;;9.40;;
18206;SDS011;9229;52.354;20.886;2023-12-20T08:01:37;14.95;;;9.48;;
18206;SDS011;9229;52.354;20.886;2023-12-20T08:06:39;17.73;;;10.50;;
18206;SDS011;9229;52.354;20.886;2023-12-20T08:11:45;12.70;;;9.40;;
18206;SDS011;9229;52.354;20.886;2023-12-20T08:16:48;13.20;;;8.52;;
18206;SDS011;9229;52.354;20.886;2023-12-20T08:21:56;11.77;;;8.18;;
18206;SDS011;9229;52.354;20.886;2023-12-20T08:27:01;19.88;;;12.18;;
18206;SDS011;9229;52.354;20.886;2023-12-20T08:32:06;14.23;;;8.80;;
18206;SDS011;9229;52.354;20.886;2023-12-20T08:37:08;15.48;;;9.07;;
18206;SDS011;9229;52.354;20.886;2023-12-20T08:42:11;13.98;;;8.57;;
18206;SDS011;9229;52.354;20.886;2023-12-20T08:47:14;9.65;;;7.47;;
18206;SDS011;9229;52.354;20.886;2023-12-20T08:52:23;11.90;;;7.70;;
18206;SDS011;9229;52.354;20.886;2023-12-20T08:57:45;10.70;;;7.60;;
18206;SDS011;9229;52.354;20.886;2023-12-20T09:02:57;9.02;;;7.35;;
18206;SDS011;9229;52.354;20.886;2023-12-20T09:08:12;10.50;;;7.95;;
18206;SDS011;9229;52.354;20.886;2023-12-20T09:13:53;15.25;;;8.48;;
18206;SDS011;9229;52.354;20.886;2023-12-20T09:19:43;13.88;;;7.75;;
18206;SDS011;9229;52.354;20.886;2023-12-20T09:42:58;14.70;;;8.32;;
18206;SDS011;9229;52.354;20.886;2023-12-20T09:49:04;11.20;;;7.03;;
18206;SDS011;9229;52.354;20.886;2023-12-20T10:06:52;9.25;;;6.97;;
18206;SDS011;9229;52.354;20.886;2023-12-20T10:13:13;9.15;;;7.15;;
18206;SDS011;9229;52.354;20.886;2023-12-20T10:25:40;12.15;;;7.97;;
18206;SDS011;9229;52.354;20.886;2023-12-20T10:31:39;11.25;;;7.55;;
18206;SDS011;9229;52.354;20.886;2023-12-20T10:37:14;10.10;;;7.75;;
18206;SDS011;9229;52.354;20.886;2023-12-20T10:42:47;9.13;;;7.15;;
18206;SDS011;9229;52.354;20.886;2023-12-20T10:53:56;11.93;;;8.10;;
18206;SDS011;9229;52.354;20.886;2023-12-20T10:59:20;12.70;;;8.93;;
18206;SDS011;9229;52.354;20.886;2023-12-20T11:04:40;12.35;;;8.48;;
18206;SDS011;9229;52.354;20.886;2023-12-20T11:10:16;9.70;;;7.95;;
18206;SDS011;9229;52.354;20.886;2023-12-20T11:16:57;15.52;;;8.77;;
18206;SDS011;9229;52.354;20.886;2023-12-20T11:22:31;13.38;;;9.13;;
18206;SDS011;9229;52.354;20.886;2023-12-20T11:27:34;13.45;;;9.35;;
18206;SDS011;9229;52.354;20.886;2023-12-20T11:32:39;12.95;;;8.93;;
18206;SDS011;9229;52.354;20.886;2023-12-20T11:37:43;13.55;;;9.10;;
18206;SDS011;9229;52.354;20.886;2023-12-20T11:42:54;14.05;;;9.38;;
18206;SDS011;9229;52.354;20.886;2023-12-20T11:47:59;16.02;;;9.93;;
18206;SDS011;9229;52.354;20.886;2023-12-20T11:53:05;10.57;;;8.00;;
18206;SDS011;9229;52.354;20.886;2023-12-20T11:58:07;15.70;;;7.68;;
18206;SDS011;9229;52.354;20.886;2023-12-20T12:08:33;7.72;;;5.97;;
18206;SDS011;9229;52.354;20.886;2023-12-20T12:13:39;8.45;;;6.13;;
18206;SDS011;9229;52.354;20.886;2023-12-20T13:31:09;10.88;;;7.85;;
18206;SDS011;9229;52.354;20.886;2023-12-20T13:42:12;11.63;;;7.30;;
18206;SDS011;9229;52.354;20.886;2023-12-20T13:47:18;9.77;;;8.23;;
18206;SDS011;9229;52.354;20.886;2023-12-20T13:52:25;13.88;;;7.72;;
18206;SDS011;9229;52.354;20.886;2023-12-20T14:09:27;12.65;;;7.78;;
18206;SDS011;9229;52.354;20.886;2023-12-20T14:14:53;13.32;;;9.25;;
18206;SDS011;9229;52.354;20.886;2023-12-20T14:20:16;18.75;;;8.65;;
18206;SDS011;9229;52.354;20.886;2023-12-20T14:25:55;16.85;;;10.05;;
18206;SDS011;9229;52.354;20.886;2023-12-20T14:31:18;15.73;;;8.20;;
18206;SDS011;9229;52.354;20.886;2023-12-20T14:36:27;16.55;;;9.40;;
18206;SDS011;9229;52.354;20.886;2023-12-20T14:41:54;10.95;;;8.73;;
18206;SDS011;9229;52.354;20.886;2023-12-20T14:47:25;19.02;;;8.55;;
18206;SDS011;9229;52.354;20.886;2023-12-20T15:17:41;15.23;;;8.40;;
18206;SDS011;9229;52.354;20.886;2023-12-20T15:23:16;14.60;;;8.07;;
18206;SDS011;9229;52.354;20.886;2023-12-20T16:11:31;14.27;;;6.97;;
18206;SDS011;9229;52.354;20.886;2023-12-20T16:16:36;12.02;;;6.35;;
18206;SDS011;9229;52.354;20.886;2023-12-20T16:28:27;10.80;;;6.68;;
18206;SDS011;9229;52.354;20.886;2023-12-20T16:39:31;8.30;;;5.78;;
18206;SDS011;9229;52.354;20.886;2023-12-20T16:44:53;8.95;;;5.80;;
18206;SDS011;9229;52.354;20.886;2023-12-20T16:50:07;6.38;;;5.65;;
18206;SDS011;9229;52.354;20.886;2023-12-20T16:55:16;8.45;;;5.70;;
18206;SDS011;9229;52.354;20.886;2023-12-20T17:00:24;24.40;;;5.90;;
18206;SDS011;9229;52.354;20.886;2023-12-20T17:05:40;10.20;;;5.30;;
18206;SDS011;9229;52.354;20.886;2023-12-20T17:11:07;7.88;;;6.00;;
18206;SDS011;9229;52.354;20.886;2023-12-20T17:21:35;16.42;;;6.88;;
18206;SDS011;9229;52.354;20.886;2023-12-20T17:26:43;13.02;;;6.72;;
18206;SDS011;9229;52.354;20.886;2023-12-20T17:31:56;11.43;;;6.90;;
18206;SDS011;9229;52.354;20.886;2023-12-20T17:37:02;10.57;;;6.90;;
18206;SDS011;9229;52.354;20.886;2023-12-20T17:47:41;11.52;;;6.50;;
18206;SDS011;9229;52.354;20.886;2023-12-20T17:52:52;11.13;;;6.78;;
18206;SDS011;9229;52.354;20.886;2023-12-20T17:58:18;8.63;;;6.40;;
18206;SDS011;9229;52.354;20.886;2023-12-20T18:08:46;13.55;;;6.82;;
18206;SDS011;9229;52.354;20.886;2023-12-20T18:14:23;9.48;;;5.88;;
18206;SDS011;9229;52.354;20.886;2023-12-20T18:20:29;11.35;;;6.35;;
18206;SDS011;9229;52.354;20.886;2023-12-20T18:26:04;14.73;;;5.82;;
18206;SDS011;9229;52.354;20.886;2023-12-20T18:32:38;13.50;;;6.88;;
18206;SDS011;9229;52.354;20.886;2023-12-20T19:02:46;8.27;;;6.13;;
18206;SDS011;9229;52.354;20.886;2023-12-20T19:07:53;15.48;;;6.18;;
18206;SDS011;9229;52.354;20.886;2023-12-20T19:13:09;13.88;;;6.65;;
18206;SDS011;9229;52.354;20.886;2023-12-20T19:18:18;10.00;;;6.80;;
18206;SDS011;9229;52.354;20.886;2023-12-20T19:23:23;7.03;;;5.72;;
18206;SDS011;9229;52.354;20.886;2023-12-20T19:28:30;5.13;;;4.25;;
18206;SDS011;9229;52.354;20.886;2023-12-20T19:33:36;4.95;;;4.47;;
18206;SDS011;9229;52.354;20.886;2023-12-20T19:38:39;3.90;;;3.60;;
18206;SDS011;9229;52.354;20.886;2023-12-20T19:43:47;3.40;;;3.20;;
18206;SDS011;9229;52.354;20.886;2023-12-20T19:48:49;3.05;;;2.85;;
18206;SDS011;9229;52.354;20.886;2023-12-20T19:53:52;3.03;;;2.83;;
18206;SDS011;9229;52.354;20.886;2023-12-20T19:58:57;3.83;;;3.50;;
18206;SDS011;9229;52.354;20.886;2023-12-20T20:04:00;2.25;;;2.15;;
18206;SDS011;9229;52.354;20.886;2023-12-20T20:09:07;2.63;;;2.42;;
18206;SDS011;9229;52.354;20.886;2023-12-20T20:14:11;3.47;;;2.72;;
18206;SDS011;9229;52.354;20.886;2023-12-20T20:19:14;3.50;;;2.55;;
18206;SDS011;9229;52.354;20.886;2023-12-20T20:24:16;4.68;;;3.97;;
18206;SDS011;9229;52.354;20.886;2023-12-20T20:29:20;3.78;;;3.17;;
18206;SDS011;9229;52.354;20.886;2023-12-20T20:34:40;5.65;;;4.15;;
18206;SDS011;9229;52.354;20.886;2023-12-20T20:39:46;7.60;;;3.63;;
18206;SDS011;9229;52.354;20.886;2023-12-20T20:44:51;11.93;;;7.03;;
18206;SDS011;9229;52.354;20.886;2023-12-20T20:49:53;7.82;;;3.95;;
18206;SDS011;9229;52.354;20.886;2023-12-20T20:55:12;7.40;;;4.53;;
18206;SDS011;9229;52.354;20.886;2023-12-20T21:00:18;10.00;;;3.50;;
18206;SDS011;9229;52.354;20.886;2023-12-20T21:05:21;7.40;;;3.80;;
18206;SDS011;9229;52.354;20.886;2023-12-20T21:10:24;6.20;;;3.33;;
18206;SDS011;9229;52.354;20.886;2023-12-20T21:15:30;6.20;;;3.83;;
18206;SDS011;9229;52.354;20.886;2023-12-20T21:20:35;9.13;;;4.18;;
18206;SDS011;9229;52.354;20.886;2023-12-20T21:25:39;3.85;;;3.53;;
18206;SDS011;9229;52.354;20.886;2023-12-20T21:30:42;6.10;;;3.90;;
18206;SDS011;9229;52.354;20.886;2023-12-20T21:35:47;11.88;;;5.13;;
18206;SDS011;9229;52.354;20.886;2023-12-20T21:40:50;4.10;;;3.35;;
18206;SDS011;9229;52.354;20.886;2023-12-20T21:45:55;5.28;;;3.55;;
18206;SDS011;9229;52.354;20.886;2023-12-20T21:50:57;6.07;;;4.47;;
18206;SDS011;9229;52.354;20.886;2023-12-20T21:56:05;8.57;;;5.30;;
18206;SDS011;9229;52.354;20.886;2023-12-20T22:01:11;4.72;;;3.80;;
18206;SDS011;9229;52.354;20.886;2023-12-20T22:06:15;11.30;;;4.93;;
18206;SDS011;9229;52.354;20.886;2023-12-20T22:11:17;8.40;;;4.75;;
18206;SDS011;9229;52.354;20.886;2023-12-20T22:16:28;4.35;;;3.95;;
18206;SDS011;9229;52.354;20.886;2023-12-20T22:21:31;8.07;;;4.30;;
18206;SDS011;9229;52.354;20.886;2023-12-20T22:26:34;6.97;;;4.32;;
18206;SDS011;9229;52.354;20.886;2023-12-20T22:31:42;13.02;;;5.50;;
18206;SDS011;9229;52.354;20.886;2023-12-20T22:36:49;9.15;;;5.18;;
18206;SDS011;9229;52.354;20.886;2023-12-20T22:41:51;7.90;;;4.68;;
18206;SDS011;9229;52.354;20.886;2023-12-20T22:46:58;8.63;;;4.30;;
18206;SDS011;9229;52.354;20.886;2023-12-20T22:52:00;9.45;;;4.45;;
18206;SDS011;9229;52.354;20.886;2023-12-20T22:57:02;8.90;;;4.47;;
18206;SDS011;9229;52.354;20.886;2023-12-20T23:02:07;10.82;;;6.13;;
18206;SDS011;9229;52.354;20.886;2023-12-20T23:07:13;14.68;;;6.50;;
18206;SDS011;9229;52.354;20.886;2023-12-20T23:12:20;12.13;;;6.60;;
18206;SDS011;9229;52.354;20.886;2023-12-20T23:17:24;7.05;;;4.68;;
18206;SDS011;9229;52.354;20.886;2023-12-20T23:22:26;6.97;;;4.80;;
18206;SDS011;9229;52.354;20.886;2023-12-20T23:27:30;8.65;;;3.60;;
18206;SDS011;9229;52.354;20.886;2023-12-20T23:32:34;6.32;;;4.60;;
18206;SDS011;9229;52.354;20.886;2023-12-20T23:37:36;10.85;;;4.57;;
18206;SDS011;9229;52.354;20.886;2023-12-20T23:42:38;7.10;;;3.42;;
18206;SDS011;9229;52.354;20.886;2023-12-20T23:47:42;6.47;;;3.72;;
18206;SDS011;9229;52.354;20.886;2023-12-20T23:52:43;8.57;;;4.15;;
18206;SDS011;9229;52.354;20.886;2023-12-20T23:57:47;4.55;;;4.15;;
